| time (UTC) | temp F | wind direction | speed MPH | gust MPH | rain 1hr in | rain 24hr in | rain mn in | humidity % | barometer mb |
| 20260510142128 | 58 | 12 | 1.0 | 1.0 | 0.00 | 0.00 | 0.00 | 94 | 1015.9 |
| 20260510140929 | 58 | 293 | 1.0 | 1.0 | 0.00 | 0.00 | 0.00 | 92 | 1016.2 |
| 20260510135715 | 58 | 328 | 2.0 | 3.0 | 0.00 | 0.00 | 0.00 | 90 | 1015.5 |
| 20260510135116 | 58 | 44 | 0.0 | 0.0 | 0.00 | 0.00 | 0.00 | 90 | 1015.5 |
| 20260510134511 | 59 | 49 | 2.0 | 3.0 | 0.00 | 0.00 | 0.00 | 89 | 1015.2 |
| 20260510133348 | 58 | 19 | 1.0 | 4.0 | 0.00 | 0.00 | 0.00 | 90 | 1015.2 |
| 20260510132749 | 59 | 58 | 2.0 | 4.0 | 0.00 | 0.00 | 0.00 | 90 | 1015.2 |
| 20260510131517 | 58 | 18 | 1.0 | 2.0 | 0.00 | 0.00 | 0.00 | 92 | 1014.9 |
| 20260510130920 | 58 | 13 | 1.0 | 1.0 | 0.00 | 0.00 | 0.00 | 92 | 1015.2 |
| 20260510130331 | 57 | 358 | 1.0 | 2.0 | 0.00 | 0.00 | 0.00 | 93 | 1015.2 |
| 20260510125751 | 57 | 322 | 1.0 | 2.0 | 0.00 | 0.00 | 0.00 | 93 | 1015.2 |
| 20260510125144 | 57 | 341 | 2.0 | 4.0 | 0.00 | 0.00 | 0.00 | 93 | 1014.9 |
| 20260510123308 | 57 | 35 | 1.0 | 2.0 | 0.00 | 0.00 | 0.00 | 94 | 1014.9 |
| 20260510122730 | 57 | 304 | 0.0 | 1.0 | 0.00 | 0.00 | 0.00 | 94 | 1014.5 |
| 20260510122134 | 57 | 273 | 4.0 | 4.0 | 0.00 | 0.00 | 0.00 | 95 | 1014.5 |
| 20260510121511 | 57 | 316 | 1.0 | 2.0 | 0.00 | 0.00 | 0.00 | 95 | 1014.5 |
| 20260510120949 | 57 | 304 | 2.0 | 3.0 | 0.00 | 0.00 | 0.00 | 95 | 1014.5 |
| 20260510115743 | 56 | 285 | 1.0 | 1.0 | 0.00 | 0.00 | 0.00 | 95 | 1014.2 |
| 20260510114518 | 56 | 293 | 2.0 | 3.0 | 0.00 | 0.00 | 0.00 | 96 | 1014.2 |
| 20260510113914 | 56 | 307 | 1.0 | 3.0 | 0.00 | 0.00 | 0.00 | 96 | 1014.2 |
| 20260510112710 | 56 | 267 | 1.0 | 3.0 | 0.00 | 0.00 | 0.00 | 96 | 1013.8 |
| 20260510112131 | 56 | 279 | 1.0 | 2.0 | 0.00 | 0.00 | 0.00 | 96 | 1013.5 |
| 20260510111532 | 56 | 260 | 2.0 | 4.0 | 0.00 | 0.00 | 0.00 | 96 | 1013.5 |
| 20260510110933 | 56 | 256 | 1.0 | 4.0 | 0.00 | 0.00 | 0.00 | 96 | 1013.8 |
| 20260510110312 | 56 | 276 | 2.0 | 3.0 | 0.00 | 0.00 | 0.00 | 96 | 1013.5 |
| 20260510105747 | 56 | 269 | 2.0 | 3.0 | 0.00 | 0.00 | 0.00 | 97 | 1013.2 |
| 20260510105143 | 55 | 283 | 1.0 | 2.0 | 0.00 | 0.00 | 0.00 | 97 | 1012.8 |
| 20260510103935 | 55 | 294 | 1.0 | 3.0 | 0.00 | 0.00 | 0.00 | 97 | 1012.5 |
| 20260510103324 | 55 | 280 | 2.0 | 3.0 | 0.00 | 0.00 | 0.00 | 97 | 1012.5 |
| 20260510102717 | 55 | 273 | 3.0 | 3.0 | 0.00 | 0.00 | 0.00 | 97 | 1012.5 |
| 20260510102142 | 55 | 300 | 2.0 | 3.0 | 0.00 | 0.00 | 0.00 | 96 | 1012.5 |
| 20260510101511 | 55 | 272 | 1.0 | 1.0 | 0.00 | 0.00 | 0.00 | 96 | 1012.5 |
| 20260510100351 | 55 | 279 | 0.0 | 1.0 | 0.00 | 0.00 | 0.00 | 96 | 1012.1 |
| 20260510095710 | 55 | 283 | 1.0 | 1.0 | 0.00 | 0.00 | 0.00 | 96 | 1012.1 |
| 20260510095139 | 55 | 277 | 1.0 | 1.0 | 0.00 | 0.00 | 0.00 | 95 | 1012.1 |
| 20260510094539 | 55 | 289 | 1.0 | 2.0 | 0.00 | 0.00 | 0.00 | 95 | 1012.1 |
| 20260510093908 | 55 | 232 | 0.0 | 2.0 | 0.00 | 0.00 | 0.00 | 95 | 1011.8 |
| 20260510093327 | 56 | 315 | 1.0 | 2.0 | 0.00 | 0.00 | 0.00 | 95 | 1011.8 |
| 20260510092725 | 56 | 280 | 1.0 | 1.0 | 0.00 | 0.00 | 0.00 | 95 | 1011.8 |
| 20260510092129 | 56 | 225 | 0.0 | 2.0 | 0.00 | 0.00 | 0.00 | 94 | 1011.8 |
| 20260510091537 | 56 | 243 | 1.0 | 1.0 | 0.00 | 0.00 | 0.00 | 94 | 1011.5 |
| 20260510090909 | 56 | 292 | 1.0 | 3.0 | 0.00 | 0.00 | 0.00 | 94 | 1011.5 |
| 20260510090341 | 56 | 289 | 2.0 | 2.0 | 0.00 | 0.00 | 0.00 | 94 | 1011.5 |
| 20260510085716 | 56 | 261 | 2.0 | 2.0 | 0.00 | 0.00 | 0.00 | 94 | 1011.1 |
| 20260510083948 | 56 | 292 | 1.0 | 2.0 | 0.00 | 0.00 | 0.00 | 93 | 1011.1 |
| 20260510083352 | 56 | 272 | 1.0 | 1.0 | 0.00 | 0.00 | 0.00 | 93 | 1011.1 |
| 20260510082744 | 57 | 264 | 1.0 | 1.0 | 0.00 | 0.00 | 0.00 | 92 | 1011.5 |
| 20260510082119 | 57 | 230 | 1.0 | 1.0 | 0.00 | 0.00 | 0.00 | 92 | 1011.1 |
| 20260510081549 | 57 | 272 | 0.0 | 1.0 | 0.00 | 0.00 | 0.00 | 92 | 1011.5 |
| 20260510080918 | 57 | 212 | 1.0 | 2.0 | 0.00 | 0.00 | 0.00 | 92 | 1011.1 |
| 20260510080327 | 57 | 285 | 1.0 | 1.0 | 0.00 | 0.00 | 0.00 | 91 | 1011.1 |
| 20260510075750 | 58 | 238 | 1.0 | 3.0 | 0.00 | 0.00 | 0.00 | 91 | 1011.5 |
| 20260510074542 | 58 | 287 | 1.0 | 1.0 | 0.00 | 0.00 | 0.00 | 91 | 1011.1 |
| 20260510073942 | 58 | 246 | 1.0 | 2.0 | 0.00 | 0.00 | 0.00 | 91 | 1011.1 |
| 20260510073347 | 58 | 252 | 1.0 | 2.0 | 0.00 | 0.00 | 0.00 | 90 | 1011.5 |
| 20260510072734 | 58 | 250 | 1.0 | 4.0 | 0.00 | 0.00 | 0.00 | 90 | 1011.1 |
| 20260510072126 | 58 | 277 | 1.0 | 2.0 | 0.00 | 0.00 | 0.00 | 90 | 1011.5 |
| 20260510071546 | 58 | 279 | 0.0 | 1.0 | 0.00 | 0.00 | 0.00 | 90 | 1011.1 |
| 20260510070925 | 58 | 318 | 0.0 | 1.0 | 0.00 | 0.00 | 0.00 | 90 | 1011.1 |
| 20260510070312 | 58 | 271 | 2.0 | 3.0 | 0.00 | 0.00 | 0.00 | 90 | 1011.1 |
| 20260510065734 | 58 | 354 | 2.0 | 6.0 | 0.00 | 0.00 | 0.00 | 90 | 1011.1 |
| 20260510065141 | 58 | 262 | 1.0 | 3.0 | 0.00 | 0.00 | 0.00 | 90 | 1011.1 |
| 20260510063923 | 58 | 268 | 0.0 | 2.0 | 0.00 | 0.00 | 0.00 | 89 | 1011.1 |
| 20260510063330 | 58 | 247 | 1.0 | 2.0 | 0.00 | 0.00 | 0.00 | 89 | 1011.1 |
| 20260510062709 | 58 | 274 | 3.0 | 4.0 | 0.00 | 0.00 | 0.00 | 89 | 1011.1 |
| 20260510062146 | 58 | 255 | 0.0 | 3.0 | 0.00 | 0.00 | 0.00 | 89 | 1011.1 |
| 20260510061534 | 59 | 235 | 2.0 | 6.0 | 0.00 | 0.00 | 0.00 | 88 | 1011.1 |
| 20260510060949 | 59 | 282 | 2.0 | 4.0 | 0.00 | 0.00 | 0.00 | 88 | 1011.1 |
| 20260510060341 | 59 | 295 | 5.0 | 6.0 | 0.00 | 0.00 | 0.00 | 88 | 1011.1 |
| 20260510055725 | 59 | 271 | 3.0 | 4.0 | 0.00 | 0.00 | 0.00 | 88 | 1011.1 |
| 20260510055118 | 59 | 281 | 1.0 | 2.0 | 0.00 | 0.00 | 0.00 | 88 | 1011.1 |
| 20260510054538 | 59 | 269 | 2.0 | 4.0 | 0.00 | 0.00 | 0.00 | 88 | 1011.1 |
| 20260510053314 | 59 | 287 | 3.0 | 4.0 | 0.00 | 0.00 | 0.00 | 87 | 1011.1 |
| 20260510052149 | 60 | 284 | 2.0 | 4.0 | 0.00 | 0.00 | 0.00 | 86 | 1011.1 |
| 20260510051548 | 60 | 231 | 2.0 | 3.0 | 0.00 | 0.00 | 0.00 | 86 | 1011.1 |
| 20260510050912 | 60 | 289 | 2.0 | 9.0 | 0.00 | 0.00 | 0.00 | 86 | 1011.1 |
| 20260510050332 | 60 | 262 | 2.0 | 4.0 | 0.00 | 0.00 | 0.00 | 86 | 1011.1 |
| 20260510045721 | 60 | 274 | 4.0 | 4.0 | 0.00 | 0.00 | 0.00 | 86 | 1011.1 |
| 20260510045110 | 60 | 210 | 3.0 | 4.0 | 0.00 | 0.00 | 0.00 | 85 | 1011.1 |
| 20260510043931 | 60 | 216 | 2.0 | 3.0 | 0.00 | 0.00 | 0.00 | 85 | 1011.1 |
| 20260510043338 | 60 | 132 | 3.0 | 6.0 | 0.00 | 0.00 | 0.00 | 84 | 1010.8 |
| 20260510042711 | 60 | 273 | 2.0 | 6.0 | 0.00 | 0.00 | 0.00 | 84 | 1010.8 |
| 20260510042145 | 60 | 286 | 2.0 | 4.0 | 0.00 | 0.00 | 0.00 | 84 | 1010.8 |
| 20260510041533 | 60 | 302 | 3.0 | 6.0 | 0.00 | 0.00 | 0.00 | 84 | 1011.1 |
| 20260510040924 | 60 | 180 | 2.0 | 7.0 | 0.00 | 0.00 | 0.00 | 84 | 1010.8 |
| 20260510040343 | 60 | 263 | 1.0 | 2.0 | 0.00 | 0.00 | 0.00 | 84 | 1010.8 |
| 20260510035747 | 60 | 284 | 5.0 | 7.0 | 0.00 | 0.00 | 0.28 | 84 | 1011.1 |
| 20260510035123 | 60 | 149 | 1.0 | 3.0 | 0.00 | 0.00 | 0.28 | 84 | 1011.1 |
| 20260510034541 | 60 | 177 | 1.0 | 3.0 | 0.00 | 0.00 | 0.28 | 83 | 1011.1 |
| 20260510033910 | 60 | 298 | 2.0 | 4.0 | 0.00 | 0.00 | 0.28 | 83 | 1010.8 |
| 20260510033316 | 60 | 244 | 2.0 | 7.0 | 0.00 | 0.00 | 0.28 | 83 | 1010.8 |
| 20260510032752 | 60 | 228 | 2.0 | 3.0 | 0.00 | 0.00 | 0.28 | 83 | 1010.8 |
| 20260510032147 | 60 | 202 | 2.0 | 8.0 | 0.00 | 0.00 | 0.28 | 83 | 1010.8 |
| 20260510031524 | 60 | 145 | 3.0 | 4.0 | 0.00 | 0.00 | 0.28 | 83 | 1010.4 |
| 20260510030919 | 60 | 263 | 1.0 | 2.0 | 0.00 | 0.00 | 0.28 | 83 | 1010.8 |
| 20260510030328 | 60 | 270 | 1.0 | 3.0 | 0.00 | 0.00 | 0.28 | 83 | 1010.4 |
| 20260510025732 | 60 | 275 | 2.0 | 4.0 | 0.00 | 0.00 | 0.28 | 82 | 1010.4 |
| 20260510025123 | 60 | 188 | 3.0 | 4.0 | 0.00 | 0.00 | 0.28 | 82 | 1010.4 |
| 20260510023940 | 60 | 217 | 0.0 | 1.0 | 0.00 | 0.00 | 0.28 | 82 | 1010.4 |
| 20260510022739 | 60 | 265 | 1.0 | 2.0 | 0.00 | 0.00 | 0.28 | 82 | 1010.4 |
| 20260510021510 | 60 | 257 | 2.0 | 3.0 | 0.00 | 0.00 | 0.28 | 81 | 1010.4 |
| 20260510020952 | 60 | 188 | 1.0 | 1.0 | 0.00 | 0.00 | 0.28 | 81 | 1010.4 |
| 20260510015740 | 61 | 219 | 0.0 | 1.0 | 0.00 | 0.00 | 0.28 | 79 | 1010.4 |
| 20260510015143 | 61 | 171 | 0.0 | 2.0 | 0.00 | 0.00 | 0.28 | 78 | 1010.1 |
| 20260510014511 | 61 | 198 | 1.0 | 2.0 | 0.00 | 0.00 | 0.28 | 77 | 1010.1 |
| 20260510013946 | 62 | 252 | 2.0 | 3.0 | 0.00 | 0.00 | 0.28 | 77 | 1009.8 |
| 20260510012725 | 62 | 181 | 1.0 | 2.0 | 0.00 | 0.00 | 0.28 | 75 | 1009.8 |
| 20260510012131 | 63 | 181 | 1.0 | 2.0 | 0.00 | 0.00 | 0.28 | 75 | 1009.4 |
| 20260510011556 | 63 | 236 | 1.0 | 3.0 | 0.00 | 0.00 | 0.28 | 74 | 1009.4 |
| 20260510010951 | 63 | 220 | 1.0 | 1.0 | 0.00 | 0.00 | 0.28 | 74 | 1009.4 |
| 20260510010348 | 63 | 290 | 2.0 | 3.0 | 0.00 | 0.00 | 0.28 | 74 | 1009.4 |
| 20260510005143 | 63 | 224 | 1.0 | 2.0 | 0.00 | 0.00 | 0.28 | 73 | 1009.1 |
| 20260510004550 | 64 | 178 | 1.0 | 1.0 | 0.00 | 0.00 | 0.28 | 72 | 1009.1 |
| 20260510003307 | 64 | 192 | 1.0 | 2.0 | 0.00 | 0.00 | 0.28 | 71 | 1009.1 |
| 20260510002716 | 65 | 199 | 0.0 | 1.0 | 0.00 | 0.00 | 0.28 | 70 | 1008.8 |
| 20260510001511 | 66 | 197 | 1.0 | 2.0 | 0.00 | 0.00 | 0.28 | 68 | 1008.8 |
| 20260510000943 | 66 | 164 | 1.0 | 2.0 | 0.00 | 0.00 | 0.28 | 67 | 1008.8 |
| 20260510000349 | 67 | 222 | 0.0 | 3.0 | 0.00 | 0.00 | 0.28 | 66 | 1008.8 |
| 20260509235710 | 67 | 191 | 2.0 | 3.0 | 0.00 | 0.00 | 0.28 | 65 | 1008.8 |
| 20260509235126 | 68 | 267 | 1.0 | 3.0 | 0.00 | 0.00 | 0.28 | 64 | 1008.8 |
| 20260509234543 | 68 | 242 | 1.0 | 4.0 | 0.00 | 0.00 | 0.28 | 63 | 1008.8 |
| 20260509233949 | 69 | 334 | 4.0 | 4.0 | 0.00 | 0.00 | 0.28 | 62 | 1008.8 |
| 20260509233339 | 69 | 269 | 5.0 | 8.0 | 0.00 | 0.00 | 0.28 | 62 | 1008.8 |
| 20260509232130 | 70 | 251 | 1.0 | 6.0 | 0.00 | 0.00 | 0.28 | 61 | 1008.4 |
| 20260509231509 | 70 | 274 | 1.0 | 2.0 | 0.00 | 0.00 | 0.28 | 61 | 1008.8 |
| 20260509230951 | 69 | 248 | 2.0 | 8.0 | 0.00 | 0.00 | 0.28 | 60 | 1008.4 |
| 20260509230332 | 70 | 251 | 0.0 | 7.0 | 0.00 | 0.00 | 0.28 | 60 | 1008.4 |
| 20260509225146 | 70 | 210 | 3.0 | 4.0 | 0.00 | 0.00 | 0.28 | 59 | 1008.4 |
| 20260509224535 | 70 | 152 | 2.0 | 4.0 | 0.00 | 0.00 | 0.28 | 61 | 1008.4 |
| 20260509223928 | 70 | 146 | 6.0 | 7.0 | 0.00 | 0.00 | 0.28 | 60 | 1008.8 |
| 20260509223343 | 70 | 39 | 2.0 | 7.0 | 0.00 | 0.00 | 0.28 | 60 | 1008.4 |
| 20260509222130 | 71 | 320 | 4.0 | 6.0 | 0.00 | 0.00 | 0.28 | 61 | 1008.8 |
| 20260509220918 | 70 | 229 | 4.0 | 10.0 | 0.00 | 0.00 | 0.28 | 61 | 1008.8 |
| 20260509220325 | 70 | 176 | 4.0 | 8.0 | 0.00 | 0.00 | 0.28 | 61 | 1008.8 |
| 20260509215723 | 70 | 242 | 5.0 | 7.0 | 0.00 | 0.00 | 0.28 | 60 | 1009.1 |
| 20260509215134 | 70 | 239 | 3.0 | 12.0 | 0.00 | 0.00 | 0.28 | 60 | 1009.1 |
| 20260509214520 | 70 | 226 | 8.0 | 16.0 | 0.00 | 0.00 | 0.28 | 60 | 1008.8 |
| 20260509213335 | 71 | 220 | 2.0 | 6.0 | 0.00 | 0.00 | 0.28 | 61 | 1008.8 |
| 20260509212739 | 70 | 247 | 2.0 | 6.0 | 0.00 | 0.00 | 0.28 | 60 | 1008.8 |
| 20260509212145 | 70 | 227 | 2.0 | 4.0 | 0.00 | 0.00 | 0.28 | 60 | 1008.8 |
| 20260509211542 | 70 | 262 | 2.0 | 7.0 | 0.00 | 0.00 | 0.28 | 61 | 1008.8 |
| 20260509210931 | 72 | 249 | 5.0 | 8.0 | 0.00 | 0.00 | 0.28 | 60 | 1008.8 |
| 20260509210318 | 71 | 236 | 2.0 | 6.0 | 0.00 | 0.00 | 0.28 | 60 | 1009.1 |
| 20260509205747 | 70 | 180 | 2.0 | 11.0 | 0.00 | 0.00 | 0.28 | 61 | 1008.8 |
| 20260509205134 | 71 | 252 | 2.0 | 3.0 | 0.00 | 0.00 | 0.28 | 61 | 1009.1 |
| 20260509204537 | 70 | 278 | 7.0 | 11.0 | 0.00 | 0.00 | 0.28 | 60 | 1009.1 |
| 20260509203950 | 70 | 181 | 5.0 | 7.0 | 0.00 | 0.00 | 0.28 | 61 | 1009.1 |
| 20260509203321 | 69 | 254 | 1.0 | 10.0 | 0.00 | 0.00 | 0.28 | 63 | 1009.1 |
| 20260509202753 | 70 | 241 | 3.0 | 6.0 | 0.00 | 0.00 | 0.28 | 62 | 1009.1 |
| 20260509202126 | 70 | 308 | 4.0 | 10.0 | 0.00 | 0.00 | 0.28 | 61 | 1009.1 |
| 20260509201532 | 70 | 268 | 4.0 | 8.0 | 0.00 | 0.00 | 0.28 | 64 | 1009.1 |
| 20260509200939 | 68 | 236 | 2.0 | 7.0 | 0.00 | 0.00 | 0.28 | 63 | 1009.4 |
| 20260509200309 | 69 | 274 | 2.0 | 8.0 | 0.00 | 0.00 | 0.28 | 64 | 1009.4 |
| 20260509195125 | 69 | 123 | 3.0 | 6.0 | 0.00 | 0.00 | 0.28 | 63 | 1009.8 |
| 20260509193915 | 69 | 225 | 4.0 | 8.0 | 0.00 | 0.00 | 0.28 | 63 | 1009.8 |
| 20260509193337 | 70 | 253 | 8.0 | 12.0 | 0.00 | 0.00 | 0.28 | 62 | 1009.8 |
| 20260509192748 | 69 | 219 | 2.0 | 4.0 | 0.00 | 0.00 | 0.28 | 65 | 1009.8 |
| 20260509191528 | 66 | 247 | 2.0 | 3.0 | 0.00 | 0.00 | 0.28 | 67 | 1010.1 |
| 20260509190313 | 68 | 262 | 4.0 | 7.0 | 0.00 | 0.00 | 0.28 | 65 | 1010.1 |
| 20260509185750 | 68 | 332 | 0.0 | 2.0 | 0.00 | 0.00 | 0.28 | 72 | 1010.1 |
| 20260509185114 | 66 | 223 | 3.0 | 6.0 | 0.00 | 0.00 | 0.28 | 68 | 1010.1 |
| 20260509184531 | 67 | 242 | 2.0 | 7.0 | 0.00 | 0.00 | 0.28 | 70 | 1010.1 |
| 20260509183936 | 66 | 271 | 2.0 | 4.0 | 0.00 | 0.00 | 0.28 | 72 | 1010.1 |
| 20260509183343 | 66 | 353 | 1.0 | 6.0 | 0.00 | 0.00 | 0.28 | 71 | 1010.1 |
| 20260509182727 | 66 | 287 | 2.0 | 3.0 | 0.00 | 0.00 | 0.28 | 71 | 1010.1 |
| 20260509182153 | 66 | 328 | 4.0 | 7.0 | 0.00 | 0.00 | 0.28 | 70 | 1010.1 |
| 20260509181515 | 65 | 183 | 3.0 | 8.0 | 0.00 | 0.00 | 0.28 | 71 | 1010.4 |
| 20260509180942 | 64 | 293 | 5.0 | 7.0 | 0.00 | 0.00 | 0.28 | 72 | 1010.4 |
| 20260509180315 | 65 | 309 | 3.0 | 8.0 | 0.00 | 0.00 | 0.28 | 73 | 1010.4 |
| 20260509175737 | 65 | 188 | 6.0 | 7.0 | 0.00 | 0.00 | 0.28 | 73 | 1010.4 |
| 20260509175152 | 65 | 324 | 1.0 | 6.0 | 0.00 | 0.00 | 0.28 | 74 | 1010.4 |
| 20260509174526 | 66 | 210 | 3.0 | 6.0 | 0.00 | 0.00 | 0.28 | 73 | 1010.4 |
| 20260509173311 | 65 | 203 | 2.0 | 6.0 | 0.00 | 0.00 | 0.28 | 74 | 1010.4 |
| 20260509172726 | 65 | 295 | 4.0 | 6.0 | 0.00 | 0.00 | 0.28 | 75 | 1010.4 |
| 20260509171510 | 65 | 311 | 2.0 | 7.0 | 0.00 | 0.00 | 0.28 | 78 | 1010.1 |
| 20260509170921 | 64 | 311 | 2.0 | 3.0 | 0.00 | 0.00 | 0.28 | 80 | 1010.4 |
| 20260509170323 | 64 | 274 | 2.0 | 4.0 | 0.00 | 0.00 | 0.28 | 81 | 1010.4 |
| 20260509165719 | 62 | 286 | 2.0 | 7.0 | 0.00 | 0.00 | 0.28 | 83 | 1010.4 |
| 20260509165132 | 61 | 300 | 2.0 | 6.0 | 0.00 | 0.00 | 0.28 | 87 | 1010.4 |
| 20260509164539 | 60 | 161 | 4.0 | 8.0 | 0.00 | 0.00 | 0.28 | 93 | 1010.4 |
| 20260509163934 | 60 | 59 | 5.0 | 9.0 | 0.00 | 0.00 | 0.28 | 97 | 1010.4 |
| 20260509162115 | 57 | 218 | 1.0 | 10.0 | 0.00 | 0.00 | 0.28 | 99 | 1010.1 |
| 20260509161540 | 56 | 210 | 2.0 | 7.0 | 0.00 | 0.00 | 0.28 | 99 | 1010.1 |
| 20260509160930 | 56 | 263 | 2.0 | 9.0 | 0.00 | 0.00 | 0.28 | 99 | 1010.1 |
| 20260509160345 | 56 | 244 | 5.0 | 10.0 | 0.00 | 0.00 | 0.28 | 99 | 1010.1 |
| 20260509155716 | 58 | 267 | 4.0 | 6.0 | 0.00 | 0.00 | 0.28 | 99 | 1010.1 |
| 20260509154540 | 56 | 179 | 4.0 | 6.0 | 0.00 | 0.00 | 0.28 | 99 | 1010.1 |
| 20260509153940 | 56 | 277 | 3.0 | 6.0 | 0.00 | 0.00 | 0.28 | 99 | 1010.1 |
| 20260509153324 | 55 | 241 | 1.0 | 3.0 | 0.00 | 0.00 | 0.28 | 99 | 1010.1 |
| 20260509152128 | 54 | 177 | 1.0 | 3.0 | 0.00 | 0.00 | 0.28 | 99 | 1010.4 |
| 20260509150915 | 53 | 217 | 2.0 | 6.0 | 0.00 | 0.00 | 0.28 | 99 | 1010.1 |
| 20260509150315 | 53 | 288 | 1.0 | 4.0 | 0.00 | 0.00 | 0.28 | 99 | 1010.1 |
| 20260509145740 | 53 | 223 | 2.0 | 4.0 | 0.00 | 0.00 | 0.28 | 99 | 1009.8 |
| 20260509145127 | 53 | 179 | 4.0 | 6.0 | 0.00 | 0.00 | 0.28 | 99 | 1010.1 |
| 20260509144508 | 53 | 229 | 1.0 | 7.0 | 0.00 | 0.00 | 0.28 | 99 | 1009.8 |
| 20260509143907 | 53 | 241 | 2.0 | 6.0 | 0.00 | 0.00 | 0.28 | 99 | 1009.8 |
| 20260509142747 | 52 | 253 | 2.0 | 6.0 | 0.00 | 0.00 | 0.28 | 99 | 1009.4 |